createdAt,value
2018-09-05T00:01:18.365Z,5.27
2018-09-05T00:03:46.764Z,5.37
2018-09-05T00:06:15.142Z,5.40
2018-09-05T00:08:43.544Z,4.80
2018-09-05T00:11:11.905Z,5.03
2018-09-05T00:13:40.280Z,5.07
2018-09-05T00:16:08.620Z,4.97
2018-09-05T00:18:36.987Z,5.10
2018-09-05T00:21:05.636Z,5.27
2018-09-05T00:23:34.031Z,4.90
2018-09-05T00:26:02.414Z,4.67
2018-09-05T00:28:30.819Z,5.17
2018-09-05T00:30:59.165Z,5.00
2018-09-05T00:33:27.525Z,5.00
2018-09-05T00:35:55.899Z,5.17
2018-09-05T00:38:24.303Z,5.07
2018-09-05T00:40:52.656Z,4.87
2018-09-05T00:43:21.079Z,5.27
2018-09-05T00:45:49.455Z,5.47
2018-09-05T00:48:17.832Z,4.97
2018-09-05T00:50:46.224Z,5.10
2018-09-05T00:53:14.576Z,4.67
2018-09-05T00:55:42.963Z,5.10
2018-09-05T00:58:11.326Z,5.23
2018-09-05T01:00:39.728Z,5.17
2018-09-05T01:03:08.085Z,4.90
2018-09-05T01:05:36.474Z,5.13
2018-09-05T01:08:04.843Z,5.47
2018-09-05T01:10:33.217Z,4.87
2018-09-05T01:13:01.579Z,4.90
2018-09-05T01:15:29.963Z,5.10
2018-09-05T01:17:58.301Z,5.83
2018-09-05T01:20:26.689Z,4.70
2018-09-05T01:22:55.096Z,5.00
2018-09-05T01:25:23.484Z,5.23
2018-09-05T01:27:52.104Z,4.67
2018-09-05T01:30:20.765Z,4.60
2018-09-05T01:32:49.120Z,4.80
2018-09-05T01:35:17.495Z,4.63
2018-09-05T01:37:45.932Z,4.37
2018-09-05T01:40:14.311Z,4.40
2018-09-05T01:42:42.680Z,4.60
2018-09-05T01:45:11.077Z,4.70
2018-09-05T01:47:39.436Z,4.43
2018-09-05T01:50:07.860Z,4.90
2018-09-05T01:52:36.204Z,4.67
2018-09-05T01:55:04.588Z,4.60
2018-09-05T01:57:32.965Z,5.17
2018-09-05T02:00:01.308Z,5.03
2018-09-05T02:02:29.639Z,4.90
2018-09-05T02:04:58.006Z,5.37
2018-09-05T02:07:26.336Z,4.50
2018-09-05T02:09:54.681Z,4.73
2018-09-05T02:12:23.035Z,5.27
2018-09-05T02:14:51.393Z,5.10
2018-09-05T02:17:19.732Z,4.97
2018-09-05T02:19:48.103Z,5.27
2018-09-05T02:22:16.461Z,5.33
2018-09-05T02:24:45.035Z,5.20
2018-09-05T02:27:13.425Z,5.13
2018-09-05T02:29:41.785Z,5.07
2018-09-05T02:32:10.128Z,5.13
2018-09-05T02:34:38.494Z,4.60
2018-09-05T02:37:06.848Z,4.67
2018-09-05T02:39:35.237Z,4.80
2018-09-05T02:42:03.612Z,4.07
2018-09-05T02:44:31.972Z,4.90
2018-09-05T02:47:00.338Z,4.97
2018-09-05T02:49:28.677Z,4.83
2018-09-05T02:51:57.049Z,5.40
2018-09-05T02:54:25.383Z,4.93
2018-09-05T02:56:53.776Z,4.93
2018-09-05T02:59:22.152Z,5.13
2018-09-05T03:01:50.579Z,5.13
2018-09-05T03:04:18.931Z,5.23
2018-09-05T03:06:47.304Z,4.53
2018-09-05T03:09:15.713Z,5.43
2018-09-05T03:11:44.036Z,4.77
2018-09-05T03:14:12.387Z,5.13
2018-09-05T03:16:40.771Z,5.63
2018-09-05T03:19:09.116Z,5.37
2018-09-05T03:21:37.480Z,5.23
2018-09-05T03:24:05.813Z,4.83
2018-09-05T03:26:34.159Z,5.43
2018-09-05T03:29:02.526Z,4.60
2018-09-05T03:31:30.858Z,5.40
2018-09-05T03:33:59.180Z,5.33
2018-09-05T03:36:27.539Z,5.27
2018-09-05T03:38:55.891Z,5.33
2018-09-05T03:41:24.237Z,5.23
2018-09-05T03:43:52.565Z,4.63
2018-09-05T03:46:20.928Z,4.90
2018-09-05T03:48:49.256Z,5.13
2018-09-05T03:51:17.616Z,4.97
2018-09-05T03:53:45.961Z,5.27
2018-09-05T03:56:14.316Z,5.43
2018-09-05T03:58:42.629Z,5.57
2018-09-05T04:01:10.995Z,5.37
2018-09-05T04:03:39.308Z,5.60
2018-09-05T04:06:07.828Z,5.33
2018-09-05T04:08:36.153Z,5.77
2018-09-05T04:11:04.556Z,6.07
2018-09-05T04:13:32.907Z,6.37
2018-09-05T04:16:01.261Z,4.97
2018-09-05T04:18:29.600Z,5.50
2018-09-05T04:20:57.952Z,5.80
2018-09-05T04:23:29.258Z,5.20
2018-09-05T04:25:57.616Z,5.63
2018-09-05T04:28:26.128Z,5.33
2018-09-05T04:30:54.467Z,5.73
2018-09-05T04:33:22.790Z,5.30
2018-09-05T04:35:51.148Z,5.40
2018-09-05T04:38:19.535Z,5.93
2018-09-05T04:40:47.867Z,5.30
2018-09-05T04:43:16.219Z,5.90
2018-09-05T04:45:44.541Z,6.20
2018-09-05T04:48:12.916Z,5.80
2018-09-05T04:50:41.261Z,5.67
2018-09-05T04:53:09.654Z,5.67
2018-09-05T04:55:37.994Z,5.63
2018-09-05T04:58:06.406Z,6.17
2018-09-05T05:00:34.744Z,5.90
2018-09-05T05:03:04.607Z,6.20
2018-09-05T05:05:33.042Z,6.17
2018-09-05T05:08:01.379Z,5.83
2018-09-05T05:10:29.714Z,6.00
2018-09-05T05:12:58.084Z,6.30
2018-09-05T05:15:26.408Z,6.40
2018-09-05T05:17:54.764Z,6.07
2018-09-05T05:20:23.144Z,6.60
2018-09-05T05:22:51.500Z,7.13
2018-09-05T05:25:19.826Z,5.73
2018-09-05T05:27:48.215Z,5.83
2018-09-05T05:30:16.704Z,6.30
2018-09-05T05:32:45.103Z,5.77
2018-09-05T05:35:13.502Z,6.33
2018-09-05T05:37:41.863Z,6.00
2018-09-05T05:40:10.246Z,5.43
2018-09-05T05:42:38.627Z,6.43
2018-09-05T05:45:06.996Z,6.90
2018-09-05T05:47:35.644Z,5.87
2018-09-05T05:50:04.396Z,6.13
2018-09-05T05:52:33.454Z,5.80
2018-09-05T05:55:02.418Z,6.17
2018-09-05T05:57:30.747Z,5.87
2018-09-05T05:59:59.098Z,6.67
2018-09-05T06:02:27.469Z,5.73
2018-09-05T06:04:55.807Z,6.80
2018-09-05T06:07:24.160Z,6.03
2018-09-05T06:09:52.515Z,6.03
2018-09-05T06:12:20.867Z,6.20
2018-09-05T06:14:49.243Z,5.80
2018-09-05T06:17:17.615Z,6.63
2018-09-05T06:19:45.959Z,6.13
2018-09-05T06:22:14.345Z,6.40
2018-09-05T06:24:42.691Z,6.07
2018-09-05T06:27:11.083Z,6.10
2018-09-05T06:29:39.415Z,6.00
2018-09-05T06:32:07.749Z,5.90
2018-09-05T06:34:36.119Z,5.93
2018-09-05T06:37:04.481Z,6.40
2018-09-05T06:39:32.856Z,5.80
2018-09-05T06:42:01.189Z,6.13
2018-09-05T06:44:29.555Z,6.07
2018-09-05T06:46:57.935Z,6.07
2018-09-05T06:49:26.350Z,6.13
2018-09-05T06:51:54.694Z,6.00
2018-09-05T06:54:23.152Z,6.00
2018-09-05T06:56:51.484Z,5.77
2018-09-05T06:59:19.858Z,6.20
2018-09-05T07:01:48.189Z,5.97
2018-09-05T07:04:16.541Z,6.30
2018-09-05T07:06:45.138Z,6.43
2018-09-05T07:09:13.855Z,6.30
2018-09-05T07:11:42.329Z,6.10
2018-09-05T07:14:10.764Z,6.70
2018-09-05T07:16:39.084Z,6.90
2018-09-05T07:19:08.921Z,7.13
2018-09-05T07:21:37.566Z,6.47
2018-09-05T07:24:06.343Z,6.43
2018-09-05T07:26:34.666Z,6.73
2018-09-05T07:29:03.053Z,7.10
2018-09-05T07:31:31.393Z,7.43
2018-09-05T07:33:59.751Z,7.10
2018-09-05T07:36:28.107Z,7.27
2018-09-05T07:38:56.479Z,7.47
2018-09-05T07:41:24.803Z,6.80
2018-09-05T07:43:53.244Z,8.07
2018-09-05T07:46:21.601Z,7.13
2018-09-05T07:48:50.094Z,8.00
2018-09-05T07:51:18.609Z,7.80
2018-09-05T07:53:47.052Z,8.00
2018-09-05T07:56:15.436Z,7.30
2018-09-05T07:58:43.837Z,7.53
2018-09-05T08:01:12.266Z,8.10
2018-09-05T08:03:40.684Z,8.73
2018-09-05T08:06:09.049Z,8.63
2018-09-05T08:08:37.426Z,8.23
2018-09-05T08:11:05.997Z,8.63
2018-09-05T08:13:34.485Z,8.80
2018-09-05T08:16:02.874Z,8.90
2018-09-05T08:18:31.398Z,9.03
2018-09-05T08:20:59.760Z,8.40
2018-09-05T08:23:28.119Z,8.80
2018-09-05T08:25:56.453Z,8.03
2018-09-05T08:28:24.849Z,8.87
2018-09-05T08:30:53.224Z,8.03
2018-09-05T08:33:21.777Z,9.23
2018-09-05T08:35:50.406Z,8.10
2018-09-05T08:38:18.526Z,8.10
2018-09-05T08:40:46.876Z,7.83
2018-09-05T08:43:15.218Z,8.20
2018-09-05T08:45:43.833Z,9.37
2018-09-05T08:48:12.100Z,8.00
2018-09-05T08:50:40.384Z,8.40
2018-09-05T08:53:08.707Z,9.70
2018-09-05T08:55:37.108Z,9.00
2018-09-05T08:58:05.476Z,9.20
2018-09-05T09:00:33.834Z,8.60
2018-09-05T09:03:02.235Z,9.17
2018-09-05T09:05:30.564Z,9.40
2018-09-05T09:07:58.917Z,9.47
2018-09-05T09:10:27.292Z,9.67
2018-09-05T09:12:55.673Z,9.37
2018-09-05T09:15:24.046Z,9.33
2018-09-05T09:17:52.423Z,9.00
2018-09-05T09:20:20.886Z,8.77
2018-09-05T09:22:49.249Z,8.97
2018-09-05T09:25:17.598Z,9.43
2018-09-05T09:27:46.001Z,10.07
2018-09-05T09:30:14.382Z,9.93
2018-09-05T09:32:42.757Z,9.90
2018-09-05T09:35:11.150Z,9.67
2018-09-05T09:37:39.517Z,9.87
2018-09-05T09:40:07.907Z,10.80
2018-09-05T09:42:36.259Z,9.57
2018-09-05T09:45:04.645Z,10.10
2018-09-05T09:47:33.005Z,10.67
2018-09-05T09:50:01.368Z,9.43
2018-09-05T09:52:29.710Z,9.00
2018-09-05T09:54:58.069Z,9.80
2018-09-05T09:57:26.429Z,9.13
2018-09-05T09:59:54.995Z,8.63
2018-09-05T10:03:32.406Z,8.13
2018-09-05T10:06:06.008Z,8.13
2018-09-05T10:08:40.373Z,8.30
2018-09-05T10:11:15.464Z,8.03
2018-09-05T10:13:49.260Z,7.50
2018-09-05T10:16:22.881Z,7.93
2018-09-05T10:18:52.554Z,7.80
2018-09-05T10:21:21.002Z,7.57
2018-09-05T10:23:49.345Z,7.67
2018-09-05T10:26:17.705Z,6.70
2018-09-05T10:28:46.060Z,6.93
2018-09-05T10:31:14.432Z,6.53
2018-09-05T10:33:42.770Z,6.40
2018-09-05T10:36:11.120Z,7.30
2018-09-05T10:38:40.050Z,7.00
2018-09-05T10:41:08.652Z,6.63
2018-09-05T10:43:37.014Z,6.60
2018-09-05T10:46:05.415Z,7.03
2018-09-05T10:48:34.625Z,6.87
2018-09-05T10:51:03.021Z,6.70
2018-09-05T10:53:31.370Z,7.13
2018-09-05T10:55:59.774Z,6.20
2018-09-05T10:58:28.152Z,6.17
2018-09-05T11:00:56.566Z,6.47
2018-09-05T11:03:25.623Z,6.27
2018-09-05T11:05:54.033Z,6.50
2018-09-05T11:08:22.476Z,5.40
2018-09-05T11:10:51.091Z,5.60
2018-09-05T11:13:19.452Z,6.30
2018-09-05T11:15:47.889Z,5.23
2018-09-05T11:18:16.244Z,5.53
2018-09-05T11:20:44.727Z,5.60
2018-09-05T11:23:13.122Z,6.03
2018-09-05T11:25:41.516Z,6.10
2018-09-05T11:28:09.952Z,5.63
2018-09-05T11:30:38.318Z,4.10
2018-09-05T11:33:06.764Z,4.17
2018-09-05T11:35:35.138Z,4.53
2018-09-05T11:38:03.524Z,4.90
2018-09-05T11:40:31.931Z,4.50
2018-09-05T11:43:00.320Z,4.37
2018-09-05T11:45:28.672Z,3.75
2018-09-05T11:47:57.080Z,4.17
2018-09-05T11:50:25.479Z,4.08
2018-09-05T11:52:53.880Z,4.40
2018-09-05T11:55:22.261Z,4.60
2018-09-05T11:57:50.668Z,4.58
2018-09-05T12:00:19.081Z,5.15
2018-09-05T12:02:47.475Z,3.92
2018-09-05T12:05:15.845Z,3.90
2018-09-05T12:07:44.534Z,4.20
2018-09-05T12:10:12.917Z,4.58
2018-09-05T12:12:41.489Z,4.00
2018-09-05T12:15:09.854Z,4.15
2018-09-05T12:17:38.303Z,4.03
2018-09-05T12:20:06.753Z,3.58
2018-09-05T12:22:35.154Z,4.12
2018-09-05T12:25:03.538Z,4.50
2018-09-05T12:27:31.994Z,4.55
2018-09-05T12:30:00.477Z,4.58
2018-09-05T12:32:28.933Z,4.33
2018-09-05T12:34:57.384Z,4.20
2018-09-05T12:37:25.773Z,4.17
2018-09-05T12:39:54.146Z,4.10
2018-09-05T12:42:22.557Z,3.95
2018-09-05T12:44:50.976Z,4.00
2018-09-05T12:47:19.327Z,3.95
2018-09-05T12:49:47.713Z,3.47
2018-09-05T12:52:16.189Z,4.15
2018-09-05T12:54:44.585Z,4.45
2018-09-05T12:57:13.000Z,4.55
2018-09-05T12:59:41.358Z,3.92
2018-09-05T13:02:09.773Z,3.77
2018-09-05T13:04:38.109Z,3.95
2018-09-05T13:07:06.531Z,4.60
2018-09-05T13:09:34.885Z,4.17
2018-09-05T13:12:03.277Z,4.58
2018-09-05T13:14:31.832Z,4.20
2018-09-05T13:17:00.188Z,4.05
2018-09-05T13:19:28.567Z,4.00
2018-09-05T13:21:56.919Z,4.42
2018-09-05T13:24:25.292Z,4.40
2018-09-05T13:26:53.669Z,4.25
2018-09-05T13:29:22.076Z,4.00
2018-09-05T13:31:50.435Z,4.00
2018-09-05T13:34:18.822Z,4.22
2018-09-05T13:36:47.177Z,4.08
2018-09-05T13:39:15.553Z,4.20
2018-09-05T13:41:43.913Z,4.17
2018-09-05T13:44:12.289Z,4.50
2018-09-05T13:46:40.643Z,4.30
2018-09-05T13:49:09.020Z,4.50
2018-09-05T13:51:37.524Z,4.55
2018-09-05T13:54:05.950Z,4.70
2018-09-05T13:56:34.302Z,4.25
2018-09-05T13:59:02.674Z,4.20
2018-09-05T14:01:31.014Z,4.55
2018-09-05T14:03:59.388Z,4.50
2018-09-05T14:06:27.737Z,4.17
2018-09-05T14:08:56.109Z,4.05
2018-09-05T14:11:24.446Z,3.70
2018-09-05T14:13:52.838Z,4.47
2018-09-05T14:16:21.410Z,3.60
2018-09-05T14:18:50.064Z,4.00
2018-09-05T14:21:18.408Z,4.20
2018-09-05T14:23:46.815Z,4.20
2018-09-05T14:26:15.181Z,3.83
2018-09-05T14:28:43.576Z,4.50
2018-09-05T14:31:11.944Z,3.80
2018-09-05T14:33:40.340Z,4.15
2018-09-05T14:36:08.696Z,4.22
2018-09-05T14:38:37.075Z,4.65
2018-09-05T14:41:05.432Z,4.20
2018-09-05T14:43:33.805Z,4.28
2018-09-05T14:46:02.202Z,4.12
2018-09-05T14:48:30.622Z,4.03
2018-09-05T14:50:58.976Z,4.50
2018-09-05T14:53:27.373Z,4.40
2018-09-05T14:55:55.887Z,4.37
2018-09-05T14:58:24.244Z,4.47
2018-09-05T15:00:52.583Z,4.10
2018-09-05T15:03:20.957Z,4.60
2018-09-05T15:05:49.315Z,4.42
2018-09-05T15:08:17.701Z,4.15
2018-09-05T15:10:46.063Z,3.72
2018-09-05T15:13:14.401Z,3.83
2018-09-05T15:15:42.783Z,4.17
2018-09-05T15:18:11.332Z,4.22
2018-09-05T15:20:39.704Z,3.90
2018-09-05T15:23:08.119Z,4.15
2018-09-05T15:25:36.520Z,4.03
2018-09-05T15:28:04.899Z,4.08
2018-09-05T15:30:33.259Z,4.10
2018-09-05T15:33:01.585Z,4.95
2018-09-05T15:35:29.945Z,4.53
2018-09-05T15:37:58.280Z,4.72
2018-09-05T15:40:26.645Z,4.60
2018-09-05T15:42:54.988Z,4.20
2018-09-05T15:45:23.352Z,4.10
2018-09-05T15:47:51.697Z,4.10
2018-09-05T15:50:20.076Z,4.12
2018-09-05T15:52:48.430Z,4.28
2018-09-05T15:55:16.789Z,4.05
2018-09-05T15:57:45.808Z,4.37
2018-09-05T16:00:14.276Z,4.30
2018-09-05T16:02:42.603Z,4.45
2018-09-05T16:05:10.987Z,4.25
2018-09-05T16:07:39.340Z,4.17
2018-09-05T16:10:07.728Z,4.17
2018-09-05T16:12:36.062Z,4.12
2018-09-05T16:15:04.810Z,4.40
2018-09-05T16:17:33.119Z,4.40
2018-09-05T16:20:01.946Z,4.28
2018-09-05T16:22:30.355Z,4.17
2018-09-05T16:24:58.720Z,4.75
2018-09-05T16:27:27.119Z,4.78
2018-09-05T16:29:55.569Z,3.85
2018-09-05T16:32:24.122Z,3.85
2018-09-05T16:34:52.496Z,4.12
2018-09-05T16:37:20.840Z,4.08
2018-09-05T16:39:49.220Z,4.62
2018-09-05T16:42:17.610Z,4.47
2018-09-05T16:44:46.876Z,4.10
2018-09-05T16:47:15.231Z,4.28
2018-09-05T16:49:43.625Z,4.00
2018-09-05T16:52:12.048Z,4.42
2018-09-05T16:54:40.517Z,4.30
2018-09-05T16:57:08.855Z,4.30
2018-09-05T16:59:37.245Z,4.50
2018-09-05T17:02:05.638Z,4.58
2018-09-05T17:04:34.005Z,4.83
2018-09-05T17:07:02.385Z,4.55
2018-09-05T17:09:30.757Z,4.30
2018-09-05T17:11:59.201Z,4.37
2018-09-05T17:14:27.568Z,4.47
2018-09-05T17:16:55.963Z,4.28
2018-09-05T17:19:24.304Z,4.85
2018-09-05T17:21:52.883Z,5.03
2018-09-05T17:24:21.234Z,4.28
2018-09-05T17:26:49.789Z,4.40
2018-09-05T17:29:18.332Z,4.25
2018-09-05T17:31:46.736Z,4.10
2018-09-05T17:34:15.125Z,4.30
2018-09-05T17:36:43.535Z,4.60
2018-09-05T17:39:14.892Z,4.20
2018-09-05T17:41:43.321Z,4.08
2018-09-05T17:44:11.957Z,4.37
2018-09-05T17:46:40.353Z,4.20
2018-09-05T17:49:09.173Z,4.35
2018-09-05T17:51:37.565Z,4.42
2018-09-05T17:54:06.040Z,4.30
2018-09-05T17:56:34.468Z,4.33
2018-09-05T17:59:02.885Z,4.53
2018-09-05T18:01:31.332Z,4.15
2018-09-05T18:03:59.685Z,4.30
2018-09-05T18:06:28.346Z,4.37
2018-09-05T18:08:56.743Z,4.80
2018-09-05T18:11:25.133Z,3.98
2018-09-05T18:13:53.530Z,4.22
2018-09-05T18:16:21.932Z,4.40
2018-09-05T18:18:50.297Z,4.47
2018-09-05T18:21:18.707Z,4.30
2018-09-05T18:23:47.066Z,4.70
2018-09-05T18:26:16.385Z,4.33
2018-09-05T18:28:45.853Z,3.77
2018-09-05T18:31:14.225Z,4.30
2018-09-05T18:33:42.608Z,4.17
2018-09-05T18:36:11.010Z,4.78
2018-09-05T18:38:39.377Z,4.10
2018-09-05T18:41:07.791Z,4.70
2018-09-05T18:43:36.152Z,4.65
2018-09-05T18:46:04.558Z,4.10
2018-09-05T18:48:32.942Z,4.72
2018-09-05T18:51:01.343Z,4.35
2018-09-05T18:53:29.685Z,4.28
2018-09-05T18:55:58.051Z,4.33
2018-09-05T18:58:26.500Z,4.22
2018-09-05T19:00:54.845Z,4.43
2018-09-05T19:03:23.196Z,4.90
2018-09-05T19:05:51.640Z,4.60
2018-09-05T19:08:20.025Z,4.70
2018-09-05T19:10:48.373Z,4.57
2018-09-05T19:13:16.732Z,4.30
2018-09-05T19:15:45.060Z,4.47
2018-09-05T19:18:13.405Z,4.40
2018-09-05T19:20:41.749Z,4.97
2018-09-05T19:23:10.094Z,4.60
2018-09-05T19:25:38.414Z,4.63
2018-09-05T19:28:06.814Z,4.70
2018-09-05T19:30:35.225Z,4.37
2018-09-05T19:33:03.591Z,4.30
2018-09-05T19:35:32.012Z,4.57
2018-09-05T19:38:00.308Z,4.40
2018-09-05T19:40:28.642Z,3.93
2018-09-05T19:42:56.998Z,4.53
2018-09-05T19:45:25.316Z,4.87
2018-09-05T19:47:53.685Z,4.63
2018-09-05T19:50:22.086Z,4.50
2018-09-05T19:52:50.429Z,4.30
2018-09-05T19:55:18.766Z,4.80
2018-09-05T19:57:47.137Z,4.37
2018-09-05T20:00:16.523Z,4.47
2018-09-05T20:02:44.895Z,4.70
2018-09-05T20:05:13.507Z,4.10
2018-09-05T20:07:41.900Z,4.67
2018-09-05T20:10:10.240Z,4.60
2018-09-05T20:12:38.626Z,4.27
2018-09-05T20:15:06.989Z,4.63
2018-09-05T20:17:35.343Z,4.33
2018-09-05T20:20:03.844Z,4.80
2018-09-05T20:22:32.183Z,4.80
2018-09-05T20:25:00.565Z,4.23
2018-09-05T20:27:28.937Z,4.13
2018-09-05T20:29:57.335Z,4.97
2018-09-05T20:32:25.924Z,4.50
2018-09-05T20:34:54.290Z,4.23
2018-09-05T20:37:22.648Z,4.80
2018-09-05T20:39:51.020Z,5.23
2018-09-05T20:42:19.385Z,4.50
2018-09-05T20:44:47.757Z,4.60
2018-09-05T20:47:16.118Z,5.03
2018-09-05T20:49:44.489Z,4.47
2018-09-05T20:52:12.921Z,4.90
2018-09-05T20:54:41.334Z,4.63
2018-09-05T20:57:09.700Z,5.67
2018-09-05T20:59:38.060Z,5.07
2018-09-05T21:02:06.440Z,5.17
2018-09-05T21:04:34.804Z,5.20
2018-09-05T21:07:03.175Z,4.90
2018-09-05T21:09:31.560Z,5.00
2018-09-05T21:11:59.926Z,5.30
2018-09-05T21:14:28.286Z,5.17
2018-09-05T21:16:56.721Z,4.40
2018-09-05T21:19:25.082Z,5.13
2018-09-05T21:21:53.451Z,4.83
2018-09-05T21:24:21.824Z,4.93
2018-09-05T21:26:50.198Z,5.30
2018-09-05T21:29:18.572Z,5.10
2018-09-05T21:31:46.943Z,4.80
2018-09-05T21:34:15.479Z,4.77
2018-09-05T21:36:43.857Z,4.67
2018-09-05T21:39:12.244Z,4.90
2018-09-05T21:41:40.608Z,5.00
2018-09-05T21:44:09.083Z,4.90
2018-09-05T21:46:37.548Z,4.80
2018-09-05T21:49:06.253Z,5.00
2018-09-05T21:51:34.676Z,5.07
2018-09-05T21:54:03.040Z,5.17
2018-09-05T21:56:31.405Z,5.37
2018-09-05T21:58:59.777Z,5.20
2018-09-05T22:01:28.168Z,5.30
2018-09-05T22:03:56.515Z,6.00
2018-09-05T22:06:24.868Z,5.70
2018-09-05T22:08:53.231Z,6.07
2018-09-05T22:11:26.804Z,5.40
2018-09-05T22:13:55.885Z,6.00
2018-09-05T22:16:24.296Z,6.13
2018-09-05T22:18:53.149Z,5.43
2018-09-05T22:21:21.520Z,5.93
2018-09-05T22:23:49.900Z,5.77
2018-09-05T22:26:18.276Z,5.70
2018-09-05T22:28:46.637Z,5.80
2018-09-05T22:31:15.007Z,5.93
2018-09-05T22:33:43.349Z,5.90
2018-09-05T22:36:11.779Z,5.77
2018-09-05T22:38:40.132Z,5.63
2018-09-05T22:41:08.672Z,5.10
2018-09-05T22:43:48.350Z,5.40
2018-09-05T22:46:28.196Z,5.57
2018-09-05T22:51:15.369Z,4.80
2018-09-05T22:54:32.015Z,5.23
2018-09-05T22:59:22.158Z,5.77
2018-09-05T23:02:05.424Z,5.23
2018-09-05T23:06:52.556Z,4.87
2018-09-05T23:09:32.452Z,5.40
2018-09-05T23:12:23.901Z,5.27
2018-09-05T23:15:04.215Z,5.67
2018-09-05T23:18:46.511Z,5.60
2018-09-05T23:21:20.394Z,5.23
2018-09-05T23:23:56.752Z,5.07
2018-09-05T23:26:25.276Z,5.37
2018-09-05T23:28:53.696Z,5.30
2018-09-05T23:31:22.451Z,4.80
2018-09-05T23:33:50.862Z,5.37
2018-09-05T23:36:19.644Z,5.23
2018-09-05T23:38:48.033Z,5.77
2018-09-05T23:41:16.470Z,5.33
2018-09-05T23:43:44.933Z,5.33
2018-09-05T23:46:13.440Z,5.20
2018-09-05T23:48:41.852Z,5.30
2018-09-05T23:51:10.237Z,5.40
2018-09-05T23:53:38.629Z,5.83
2018-09-05T23:56:06.997Z,5.23
2018-09-05T23:58:35.373Z,5.57
